Time;durP1;ratioP1;P1;durP2;ratioP2;P2;SDS_P1;SDS_P2;PMS_P1;PMS_P2;Temp;Humidity;BMP_temperature;BMP_pressure;BME280_temperature;BME280_humidity;BME280_pressure;Samples;Min_cycle;Max_cycle;Signal;HPM_P1;HPM_P2
2022/03/21 00:03:22;;;;;;;74.75;42.85;;;8.10;99.90;;;;;;5111133;27;20878;-73
2022/03/21 00:05:48;;;;;;;70.07;42.20;;;8.10;99.90;;;;;;5109781;28;20027;-73
2022/03/21 00:08:17;;;;;;;73.07;42.65;;;8.20;99.90;;;;;;5110958;28;20485;-73
2022/03/21 00:10:43;;;;;;;77.13;44.55;;;8.10;99.90;;;;;;5109852;28;20016;-73
2022/03/21 00:13:09;;;;;;;69.47;42.05;;;8.10;99.90;;;;;;5092659;28;20394;-73
2022/03/21 00:15:35;;;;;;;69.35;42.47;;;8.00;99.90;;;;;;5110952;28;20020;-73
2022/03/21 00:18:03;;;;;;;76.13;44.75;;;8.00;99.90;;;;;;5109667;28;20218;-73
2022/03/21 00:20:30;;;;;;;72.05;44.15;;;8.00;99.90;;;;;;5110718;28;20077;-73
2022/03/21 00:22:56;;;;;;;65.75;42.72;;;8.00;99.90;;;;;;5110675;28;20023;-73
2022/03/21 00:25:22;;;;;;;71.43;42.97;;;8.00;99.90;;;;;;5109559;28;20016;-73
2022/03/21 00:27:48;;;;;;;73.50;43.70;;;8.00;99.90;;;;;;5109456;28;20080;-74
2022/03/21 00:30:15;;;;;;;78.55;46.28;;;8.00;99.90;;;;;;5110624;28;20027;-73
2022/03/21 00:32:42;;;;;;;90.18;50.40;;;8.00;99.90;;;;;;5110572;28;20517;-74
2022/03/21 00:35:10;;;;;;;80.88;47.83;;;8.30;99.90;;;;;;5110646;28;20070;-73
2022/03/21 00:37:37;;;;;;;80.60;46.50;;;8.40;99.90;;;;;;5110606;28;20031;-73
2022/03/21 00:40:05;;;;;;;81.88;47.25;;;8.40;99.90;;;;;;5110538;28;20036;-73
2022/03/21 00:42:32;;;;;;;79.63;47.13;;;8.30;99.90;;;;;;5110329;28;20047;-73
2022/03/21 00:44:57;;;;;;;83.25;49.17;;;8.30;99.90;;;;;;5109200;28;20108;-73
2022/03/21 00:47:24;;;;;;;84.05;48.97;;;8.40;99.90;;;;;;5108984;28;20038;-73
2022/03/21 00:49:52;;;;;;;81.32;47.75;;;8.50;99.90;;;;;;5110318;28;20052;-73
2022/03/21 00:52:18;;;;;;;83.45;46.63;;;8.40;99.90;;;;;;5110254;28;20073;-73
2022/03/21 00:54:43;;;;;;;79.65;47.38;;;8.30;99.90;;;;;;5092011;28;20024;-73
2022/03/21 00:57:08;;;;;;;81.03;47.92;;;8.20;99.90;;;;;;5110139;28;20539;-73
2022/03/21 00:59:34;;;;;;;81.45;47.63;;;8.30;99.90;;;;;;5091772;28;20107;-73
2022/03/21 01:01:59;;;;;;;82.55;48.10;;;8.30;99.90;;;;;;5108577;28;20048;-74
2022/03/21 01:04:25;;;;;;;79.28;47.25;;;8.20;99.90;;;;;;5108769;28;20024;-74
2022/03/21 01:06:51;;;;;;;83.03;49.67;;;8.20;99.90;;;;;;5108717;28;20020;-74
2022/03/21 01:09:17;;;;;;;86.55;49.05;;;8.10;99.90;;;;;;5108656;28;20063;-74
2022/03/21 01:11:43;;;;;;;81.80;49.08;;;8.20;99.90;;;;;;5109886;28;20535;-74
2022/03/21 01:14:10;;;;;;;78.18;47.08;;;8.20;99.90;;;;;;5099256;28;20077;-74
2022/03/21 01:16:36;;;;;;;80.18;47.42;;;8.20;99.90;;;;;;5096265;28;20020;-73
2022/03/21 01:19:01;;;;;;;77.88;49.40;;;8.20;99.90;;;;;;5096083;28;20482;-73
2022/03/21 01:21:29;;;;;;;79.95;47.20;;;8.10;99.90;;;;;;5077938;28;20390;-74
2022/03/21 01:23:55;;;;;;;82.20;49.08;;;8.00;99.90;;;;;;5096082;28;20473;-73
2022/03/21 01:26:22;;;;;;;90.85;50.50;;;8.00;99.90;;;;;;5094819;28;20058;-74
2022/03/21 01:28:47;;;;;;;81.15;48.28;;;8.00;99.90;;;;;;5094810;28;20020;-74
2022/03/21 01:31:13;;;;;;;82.10;50.25;;;7.90;99.90;;;;;;5094765;28;20534;-73
2022/03/21 01:33:40;;;;;;;75.72;46.33;;;7.90;99.90;;;;;;5095914;28;20432;-73
2022/03/21 01:36:06;;;;;;;76.07;46.88;;;7.90;99.90;;;;;;5094722;28;20024;-74
2022/03/21 01:38:33;;;;;;;83.30;47.78;;;7.90;99.90;;;;;;5094549;28;20479;-73
2022/03/21 01:40:58;;;;;;;84.68;49.10;;;7.80;99.90;;;;;;5094454;28;20032;-74
2022/03/21 01:43:24;;;;;;;81.07;48.60;;;7.80;99.90;;;;;;5095611;28;20031;-74
2022/03/21 01:45:49;;;;;;;75.93;45.72;;;7.80;99.90;;;;;;5077449;28;20386;-74
2022/03/21 01:48:15;;;;;;;82.00;48.53;;;7.80;99.90;;;;;;5095534;28;20432;-73
2022/03/21 01:50:42;;;;;;;77.90;46.78;;;7.70;99.90;;;;;;5094322;28;20061;-74
2022/03/21 01:55:56;;;;;;;78.40;45.33;;;7.80;99.90;;;;;;5094223;28;20414;-73
2022/03/21 01:58:24;;;;;;;74.25;43.85;;;7.80;99.90;;;;;;5094190;28;20052;-73
2022/03/21 02:00:51;;;;;;;68.10;41.72;;;7.80;99.90;;;;;;5077518;28;20028;-73
2022/03/21 02:03:18;;;;;;;74.25;42.72;;;7.80;99.90;;;;;;5094974;28;20092;-73
2022/03/21 02:05:47;;;;;;;69.15;42.35;;;7.80;99.90;;;;;;5093910;28;20020;-73
2022/03/21 02:08:13;;;;;;;72.93;43.80;;;7.80;99.90;;;;;;5095502;28;20028;-74
2022/03/21 02:10:43;;;;;;;63.97;40.40;;;7.80;99.90;;;;;;5095085;28;20030;-73
2022/03/21 02:13:10;;;;;;;78.75;45.17;;;7.70;99.90;;;;;;5093933;28;20036;-73
2022/03/21 02:15:36;;;;;;;81.82;47.83;;;7.70;99.90;;;;;;5095091;28;20035;-73
2022/03/21 02:18:03;;;;;;;76.68;44.92;;;7.70;99.90;;;;;;5093868;28;20035;-74
2022/03/21 02:20:33;;;;;;;86.70;47.55;;;7.70;99.90;;;;;;5094964;28;20107;-74
2022/03/21 02:23:12;;;;;;;74.93;46.72;;;7.70;99.90;;;;;;5094781;28;20020;-73
2022/03/21 02:25:42;;;;;;;81.55;46.47;;;7.70;99.90;;;;;;5093870;28;20428;-74
2022/03/21 02:28:10;;;;;;;80.80;45.95;;;7.70;99.90;;;;;;5076834;28;20047;-73
2022/03/21 02:30:40;;;;;;;73.90;44.80;;;7.70;99.90;;;;;;5093496;28;20115;-74
2022/03/21 02:33:06;;;;;;;74.72;45.83;;;7.70;99.90;;;;;;5094747;28;20031;-72
2022/03/21 02:35:33;;;;;;;80.25;47.25;;;7.70;99.90;;;;;;5094668;28;20500;-73
2022/03/21 02:38:00;;;;;;;68.50;40.85;;;7.70;99.90;;;;;;5093364;28;20024;-74
2022/03/21 02:40:26;;;;;;;70.65;41.03;;;7.70;99.90;;;;;;5093422;28;20024;-74
2022/03/21 02:42:52;;;;;;;77.35;44.13;;;7.70;99.90;;;;;;5094500;28;20028;-73
2022/03/21 02:45:17;;;;;;;76.60;43.78;;;7.80;99.90;;;;;;5094582;28;20363;-73
2022/03/21 02:47:43;;;;;;;76.53;42.83;;;7.80;99.90;;;;;;5093040;28;20017;-73
2022/03/21 02:50:12;;;;;;;78.53;43.13;;;7.80;99.90;;;;;;5093196;28;20035;-73
2022/03/21 02:52:39;;;;;;;76.72;43.13;;;7.80;99.90;;;;;;5094381;28;20542;-73
2022/03/21 02:55:05;;;;;;;79.53;45.95;;;7.70;99.90;;;;;;5093012;28;20024;-73
2022/03/21 02:57:32;;;;;;;82.90;46.13;;;7.70;99.90;;;;;;5093053;28;20020;-73
2022/03/21 02:59:58;;;;;;;78.03;46.15;;;7.70;99.90;;;;;;5076322;28;20374;-73
2022/03/21 03:02:24;;;;;;;81.45;45.45;;;7.80;99.90;;;;;;5093929;28;20079;-73
2022/03/21 03:04:50;;;;;;;76.30;45.17;;;7.80;99.90;;;;;;5092839;28;20432;-74
2022/03/21 03:07:15;;;;;;;81.30;46.22;;;7.80;99.90;;;;;;5075804;28;20052;-73
2022/03/21 03:09:41;;;;;;;78.93;45.33;;;7.80;99.90;;;;;;5094044;28;20107;-73
2022/03/21 03:12:08;;;;;;;83.68;46.05;;;7.90;99.90;;;;;;5094026;28;20420;-73
2022/03/21 03:14:34;;;;;;;77.97;45.47;;;7.80;99.90;;;;;;5093916;28;20020;-74
2022/03/21 03:17:01;;;;;;;74.70;44.67;;;7.70;99.90;;;;;;5093880;28;20103;-74
2022/03/21 03:19:27;;;;;;;84.90;48.17;;;7.70;99.90;;;;;;5092580;28;20030;-73
2022/03/21 03:21:54;;;;;;;80.50;47.25;;;7.70;99.90;;;;;;5092460;28;20031;-73
2022/03/21 03:24:22;;;;;;;79.72;47.10;;;7.60;99.90;;;;;;5092688;28;20043;-73
2022/03/21 03:26:48;;;;;;;81.32;47.53;;;7.60;99.90;;;;;;5092440;28;20074;-73
2022/03/21 03:29:14;;;;;;;84.65;50.17;;;7.50;99.90;;;;;;5093671;28;20013;-74
2022/03/21 03:31:40;;;;;;;82.32;47.33;;;7.50;99.90;;;;;;5093661;28;20436;-73
2022/03/21 03:34:06;;;;;;;76.30;45.33;;;7.50;99.90;;;;;;5075537;28;20495;-74
2022/03/21 03:36:32;;;;;;;81.85;48.08;;;7.40;99.90;;;;;;5093333;28;20111;-73
2022/03/21 03:38:57;;;;;;;82.97;48.72;;;7.30;99.90;;;;;;5075487;28;20024;-74
2022/03/21 03:41:24;;;;;;;86.57;47.47;;;7.30;99.90;;;;;;5093427;28;20034;-73
2022/03/21 03:43:50;;;;;;;82.43;47.67;;;7.30;99.90;;;;;;5092303;28;20466;-73
2022/03/21 03:46:17;;;;;;;84.45;48.35;;;7.20;99.90;;;;;;5093637;28;20069;-73
2022/03/21 03:48:43;;;;;;;88.07;50.50;;;7.20;99.90;;;;;;5093463;28;20103;-74
2022/03/21 03:51:10;;;;;;;82.10;48.95;;;7.20;99.90;;;;;;5093494;28;20038;-73
2022/03/21 03:53:36;;;;;;;81.65;47.40;;;7.10;99.90;;;;;;5092212;28;20490;-74
2022/03/21 03:56:01;;;;;;;88.65;49.38;;;7.10;99.90;;;;;;5093295;28;20062;-74
2022/03/21 03:58:27;;;;;;;85.05;48.60;;;7.00;99.90;;;;;;5092041;28;20111;-74
2022/03/21 04:00:54;;;;;;;83.05;47.45;;;7.00;99.90;;;;;;5093147;28;20070;-73
2022/03/21 04:03:51;;;;;;;86.00;49.08;;;6.90;99.90;;;;;;5092022;28;20032;-73
2022/03/21 04:06:05;;;;;;;88.60;48.63;;;6.80;99.90;;;;;;5093088;28;20020;-73
2022/03/21 04:08:31;;;;;;;96.38;51.28;;;6.80;99.90;;;;;;5091951;28;20028;-74
2022/03/21 04:10:56;;;;;;;82.57;47.67;;;6.70;99.90;;;;;;5093145;28;20020;-73
2022/03/21 04:13:22;;;;;;;92.05;51.15;;;6.70;99.90;;;;;;5093129;28;20024;-74
2022/03/21 04:15:47;;;;;;;88.63;47.05;;;6.70;99.90;;;;;;5075061;28;20174;-74
2022/03/21 04:18:13;;;;;;;85.30;47.53;;;6.60;99.90;;;;;;5091830;28;20027;-73
2022/03/21 04:20:39;;;;;;;80.60;43.15;;;6.60;99.90;;;;;;5091821;28;20029;-74
2022/03/21 04:23:04;;;;;;;77.93;42.13;;;6.50;99.90;;;;;;5093148;28;20027;-73
2022/03/21 04:25:30;;;;;;;75.07;41.30;;;6.50;99.90;;;;;;5093006;28;20019;-73
2022/03/21 04:27:56;;;;;;;72.78;40.17;;;6.50;99.90;;;;;;5074954;28;20032;-73
2022/03/21 04:30:23;;;;;;;73.70;40.97;;;6.40;99.90;;;;;;5092953;28;20074;-73
2022/03/21 04:32:49;;;;;;;68.05;39.70;;;6.30;99.90;;;;;;5091850;28;20424;-73
2022/03/21 04:35:14;;;;;;;70.53;37.78;;;6.20;99.90;;;;;;5093032;28;20031;-74
2022/03/21 04:37:40;;;;;;;67.43;38.80;;;6.20;99.90;;;;;;5091921;28;20027;-73
2022/03/21 04:40:08;;;;;;;75.70;40.35;;;6.10;99.90;;;;;;5092902;28;20028;-74
2022/03/21 04:42:35;;;;;;;73.47;40.22;;;6.00;99.90;;;;;;5091588;28;20028;-74
2022/03/21 04:45:00;;;;;;;71.20;39.50;;;6.00;99.90;;;;;;5092843;28;20467;-74
2022/03/21 04:47:26;;;;;;;70.15;40.67;;;5.90;99.90;;;;;;5092885;28;20027;-74
2022/03/21 04:49:51;;;;;;;67.93;39.38;;;5.80;99.90;;;;;;5096147;28;20024;-74
2022/03/21 04:52:17;;;;;;;75.50;41.17;;;5.70;99.90;;;;;;5096650;28;20027;-74
2022/03/21 04:54:42;;;;;;;70.03;41.15;;;5.70;99.90;;;;;;5095385;28;20055;-73
2022/03/21 04:57:08;;;;;;;70.50;40.42;;;5.60;99.90;;;;;;5095478;28;20482;-73
2022/03/21 04:59:34;;;;;;;72.63;40.08;;;5.60;99.90;;;;;;5095304;28;20020;-73
2022/03/21 05:02:00;;;;;;;75.57;41.47;;;5.50;99.90;;;;;;5096183;28;20055;-73
2022/03/21 05:04:26;;;;;;;70.57;39.60;;;5.40;99.90;;;;;;5096403;28;20028;-74
2022/03/21 05:06:53;;;;;;;73.43;40.47;;;5.40;99.90;;;;;;5078189;28;20074;-74
2022/03/21 05:09:19;;;;;;;69.75;40.60;;;5.30;99.90;;;;;;5095065;28;20052;-74
2022/03/21 05:11:45;;;;;;;84.60;42.65;;;5.30;99.90;;;;;;5078094;28;20101;-73
2022/03/21 05:14:10;;;;;;;75.68;42.72;;;5.30;99.90;;;;;;5096306;28;20554;-74
2022/03/21 05:16:36;;;;;;;81.82;43.58;;;5.20;99.90;;;;;;5094898;28;20103;-74
2022/03/21 05:19:03;;;;;;;84.13;45.08;;;5.20;99.90;;;;;;5094896;28;20071;-74
2022/03/21 05:21:28;;;;;;;75.43;41.40;;;5.20;99.90;;;;;;5094863;28;20016;-73
2022/03/21 05:32:10;;;;;;;81.90;46.42;;;5.00;99.90;;;;;;5095738;28;20059;-73
2022/03/21 05:37:21;;;;;;;90.95;46.70;;;5.00;99.90;;;;;;5095634;28;20510;-74
2022/03/21 05:42:32;;;;;;;89.13;45.13;;;4.90;99.90;;;;;;5095306;28;20028;-73
2022/03/21 05:44:57;;;;;;;84.05;46.90;;;4.90;99.90;;;;;;5094464;28;20410;-74
2022/03/21 05:47:23;;;;;;;86.15;44.25;;;4.90;99.90;;;;;;5094450;28;20021;-74
2022/03/21 05:49:48;;;;;;;92.82;47.45;;;4.80;99.90;;;;;;5095564;28;20069;-74
2022/03/21 05:52:14;;;;;;;86.80;46.65;;;4.80;99.90;;;;;;5077432;28;20055;-74
2022/03/21 05:54:40;;;;;;;89.22;48.25;;;4.90;99.90;;;;;;5095446;28;20036;-74
2022/03/21 05:57:05;;;;;;;85.28;46.83;;;4.90;99.90;;;;;;5094096;28;20028;-74
2022/03/21 06:02:16;;;;;;;91.88;47.35;;;5.00;99.90;;;;;;5094924;28;20043;-73
2022/03/21 06:04:42;;;;;;;88.38;46.15;;;5.10;99.90;;;;;;5094082;28;20016;-73
2022/03/21 06:07:10;;;;;;;92.28;47.95;;;5.20;99.90;;;;;;5094106;28;20469;-73
2022/03/21 06:09:36;;;;;;;82.75;44.10;;;5.40;99.90;;;;;;5093901;28;20020;-74
2022/03/21 06:12:01;;;;;;;83.00;47.35;;;5.60;99.90;;;;;;5093908;28;20100;-73
2022/03/21 06:14:27;;;;;;;78.35;43.63;;;5.80;99.90;;;;;;5095088;28;20493;-74
2022/03/21 06:16:52;;;;;;;77.50;43.50;;;6.10;99.90;;;;;;5093769;28;20032;-73
2022/03/21 06:19:18;;;;;;;76.07;41.35;;;6.50;99.90;;;;;;5093688;28;20394;-73
2022/03/21 06:21:44;;;;;;;71.90;40.60;;;6.80;99.90;;;;;;5093750;28;20394;-73
2022/03/21 06:24:12;;;;;;;69.75;39.55;;;7.00;99.90;;;;;;5093746;28;20031;-73
2022/03/21 06:26:39;;;;;;;63.35;37.17;;;7.30;99.90;;;;;;5094948;28;20020;-73
2022/03/21 06:29:05;;;;;;;66.05;37.72;;;7.80;99.90;;;;;;5093487;28;20514;-74
2022/03/21 06:31:31;;;;;;;58.67;35.47;;;8.30;99.90;;;;;;5094663;28;20016;-73
2022/03/21 06:33:56;;;;;;;61.10;35.45;;;8.90;99.90;;;;;;5094626;28;20020;-74
2022/03/21 06:36:22;;;;;;;59.45;34.58;;;9.50;99.90;;;;;;5093454;28;20024;-74
2022/03/21 06:38:47;;;;;;;56.78;34.47;;;10.30;99.90;;;;;;5093241;28;20024;-74
2022/03/21 06:41:14;;;;;;;50.78;31.55;;;10.80;99.90;;;;;;5094421;28;20428;-75
2022/03/21 06:43:40;;;;;;;47.60;31.42;;;11.80;99.90;;;;;;5093392;28;20393;-74
2022/03/21 06:46:05;;;;;;;53.05;31.27;;;11.90;99.90;;;;;;5093115;28;20020;-74
2022/03/21 06:48:31;;;;;;;48.97;32.40;;;12.10;99.90;;;;;;5093019;28;20044;-74
2022/03/21 06:50:56;;;;;;;47.72;30.25;;;11.90;99.90;;;;;;5093172;28;20031;-74
2022/03/21 06:53:22;;;;;;;48.97;30.30;;;11.70;99.90;;;;;;5092905;28;20028;-74
2022/03/21 06:55:48;;;;;;;47.38;29.92;;;12.50;99.90;;;;;;5094233;28;20583;-74
2022/03/21 06:58:15;;;;;;;46.63;31.38;;;12.80;99.90;;;;;;5094152;28;20071;-75
2022/03/21 07:00:42;;;;;;;42.67;30.08;;;13.10;99.90;;;;;;5092786;28;20024;-74
2022/03/21 07:03:08;;;;;;;42.08;30.08;;;12.90;99.90;;;;;;5093850;28;20490;-74
2022/03/21 07:05:35;;;;;;;41.08;28.27;;;13.30;99.90;;;;;;5093996;28;20031;-74
2022/03/21 07:08:00;;;;;;;47.13;29.77;;;14.00;99.90;;;;;;5092836;28;20027;-74
2022/03/21 07:10:26;;;;;;;43.33;30.45;;;14.20;99.10;;;;;;5092651;28;20020;-74
2022/03/21 07:12:52;;;;;;;42.40;29.17;;;14.20;97.90;;;;;;5093551;28;20161;-75
2022/03/21 07:15:17;;;;;;;45.33;29.83;;;14.50;96.40;;;;;;5092680;28;20456;-74
2022/03/21 07:17:43;;;;;;;38.20;27.67;;;15.30;95.30;;;;;;5092393;28;20028;-74
2022/03/21 07:20:10;;;;;;;42.53;28.90;;;15.90;92.20;;;;;;5092561;28;20405;-74
2022/03/21 07:22:36;;;;;;;40.25;27.25;;;15.50;91.10;;;;;;5092416;28;20501;-74
2022/03/21 07:25:02;;;;;;;38.30;27.88;;;16.20;88.50;;;;;;5075419;28;20119;-75
2022/03/21 07:27:27;;;;;;;36.72;27.30;;;15.30;88.40;;;;;;5093634;28;20478;-73
2022/03/21 07:29:53;;;;;;;41.08;29.08;;;16.20;86.30;;;;;;5093501;28;20017;-74
2022/03/21 07:32:19;;;;;;;37.42;28.15;;;16.60;82.00;;;;;;5092311;28;20021;-74
2022/03/21 07:34:45;;;;;;;37.75;26.98;;;16.50;79.80;;;;;;5092193;28;20056;-74
2022/03/21 07:37:10;;;;;;;36.03;27.63;;;16.20;82.40;;;;;;5092241;28;20028;-73
2022/03/21 07:39:37;;;;;;;36.80;26.35;;;16.20;80.80;;;;;;5093203;28;20107;-74
2022/03/21 07:42:04;;;;;;;37.35;26.00;;;16.70;76.20;;;;;;5093252;28;20493;-73
2022/03/21 07:47:20;;;;;;;36.17;26.45;;;16.40;77.80;;;;;;5092150;28;20049;-73
2022/03/21 07:49:48;;;;;;;38.60;26.70;;;16.50;76.70;;;;;;5092205;28;20016;-74
2022/03/21 07:52:14;;;;;;;36.40;26.15;;;16.80;75.70;;;;;;5091534;28;20084;-74
2022/03/21 07:54:40;;;;;;;37.72;26.65;;;17.50;73.60;;;;;;5091690;28;20031;-73
2022/03/21 07:57:06;;;;;;;34.55;25.52;;;17.50;70.70;;;;;;5091330;28;20119;-73
2022/03/21 07:59:32;;;;;;;40.00;27.08;;;18.20;67.10;;;;;;5092929;28;20063;-76
2022/03/21 08:01:58;;;;;;;35.78;26.42;;;18.00;67.30;;;;;;5092137;28;20036;-71
2022/03/21 08:04:24;;;;;;;40.45;26.05;;;17.70;66.30;;;;;;5092967;28;20070;-72
2022/03/21 08:06:53;;;;;;;36.20;25.30;;;17.60;68.00;;;;;;5091529;28;20028;-73
2022/03/21 08:09:18;;;;;;;36.65;25.63;;;18.00;67.10;;;;;;5091315;28;20024;-72
2022/03/21 08:11:43;;;;;;;33.38;25.40;;;18.20;65.60;;;;;;5090805;28;20040;-72
2022/03/21 08:14:09;;;;;;;35.92;24.27;;;18.60;64.70;;;;;;5091236;28;20508;-72
2022/03/21 08:16:34;;;;;;;31.25;23.70;;;18.50;65.20;;;;;;5092702;28;20029;-72
2022/03/21 08:19:00;;;;;;;33.30;24.13;;;18.40;62.00;;;;;;5093033;28;20032;-71
2022/03/21 08:21:26;;;;;;;32.15;23.83;;;18.20;62.20;;;;;;5091252;28;20020;-72
2022/03/21 08:23:51;;;;;;;37.38;23.80;;;17.90;64.00;;;;;;5093217;28;20039;-72
2022/03/21 08:26:17;;;;;;;33.75;23.23;;;18.70;61.20;;;;;;5096713;28;20390;-72
2022/03/21 08:28:45;;;;;;;31.83;23.23;;;18.30;60.70;;;;;;5095534;28;20390;-72
2022/03/21 08:31:13;;;;;;;33.38;23.52;;;18.30;60.90;;;;;;5096517;28;20028;-73
2022/03/21 08:33:38;;;;;;;32.38;23.17;;;18.60;61.20;;;;;;5078579;28;20603;-73
2022/03/21 08:36:04;;;;;;;27.92;20.90;;;18.80;59.30;;;;;;5095549;28;20055;-73
2022/03/21 08:38:30;;;;;;;29.92;22.02;;;18.90;56.80;;;;;;5095337;28;20470;-73
2022/03/21 08:40:57;;;;;;;29.45;21.63;;;19.00;57.00;;;;;;5076596;28;20047;-73
2022/03/21 08:43:23;;;;;;;23.92;18.58;;;18.60;58.30;;;;;;5076709;28;20035;-73
2022/03/21 08:45:49;;;;;;;26.92;19.60;;;19.00;55.00;;;;;;5094209;28;20027;-73
2022/03/21 08:48:15;;;;;;;22.20;18.63;;;19.10;54.20;;;;;;5096604;28;20020;-73
2022/03/21 08:50:40;;;;;;;27.02;19.40;;;18.70;53.20;;;;;;5096416;28;20099;-72
2022/03/21 08:53:08;;;;;;;24.40;19.08;;;18.80;54.20;;;;;;5096472;28;20078;-73
2022/03/21 08:55:34;;;;;;;29.27;19.75;;;19.00;52.70;;;;;;5094717;28;20032;-72
2022/03/21 08:57:59;;;;;;;28.48;20.23;;;18.00;54.20;;;;;;5096225;28;20486;-72
2022/03/21 09:00:25;;;;;;;25.52;19.48;;;18.40;54.40;;;;;;5094865;28;20035;-72
2022/03/21 09:02:52;;;;;;;25.77;19.55;;;18.60;54.20;;;;;;5094646;28;20075;-72
2022/03/21 09:05:19;;;;;;;25.33;19.48;;;18.20;53.40;;;;;;5078450;28;20032;-73
2022/03/21 09:07:45;;;;;;;29.42;20.40;;;18.80;53.70;;;;;;5094582;28;20052;-72
2022/03/21 09:10:12;;;;;;;29.17;19.67;;;19.40;53.40;;;;;;5095111;28;20108;-73
2022/03/21 09:12:38;;;;;;;23.20;18.83;;;19.70;52.10;;;;;;5094410;28;20039;-73
2022/03/21 09:15:04;;;;;;;29.98;20.02;;;19.30;53.30;;;;;;5096041;28;20482;-72
2022/03/21 09:17:30;;;;;;;27.00;20.85;;;18.60;53.90;;;;;;5094446;28;20158;-73
2022/03/21 09:19:55;;;;;;;25.42;19.98;;;19.00;54.90;;;;;;5094079;28;20082;-73
2022/03/21 09:22:21;;;;;;;30.40;21.33;;;18.30;55.20;;;;;;5094730;28;20262;-72
2022/03/21 09:24:46;;;;;;;26.90;21.33;;;18.20;56.50;;;;;;5095709;28;20039;-72
2022/03/21 09:27:12;;;;;;;27.42;20.88;;;18.40;55.50;;;;;;5094206;28;20027;-73
2022/03/21 09:29:39;;;;;;;27.45;20.92;;;19.30;55.10;;;;;;5077448;28;20472;-73
2022/03/21 09:32:05;;;;;;;25.42;20.80;;;19.20;54.80;;;;;;5094132;28;20027;-73
2022/03/21 09:34:32;;;;;;;26.00;19.98;;;19.60;55.20;;;;;;5094936;28;20107;-72
2022/03/21 09:36:58;;;;;;;30.88;22.00;;;19.50;54.80;;;;;;5094042;28;20026;-72
2022/03/21 09:39:23;;;;;;;27.58;20.60;;;18.80;54.60;;;;;;5094450;28;20028;-72
2022/03/21 09:41:50;;;;;;;26.00;20.30;;;19.60;55.50;;;;;;5095063;28;20078;-73
2022/03/21 09:44:16;;;;;;;29.13;20.95;;;20.20;54.60;;;;;;5095229;28;20085;-73
2022/03/21 09:46:43;;;;;;;28.38;20.90;;;20.50;53.20;;;;;;5094504;28;20545;-72
2022/03/21 09:49:11;;;;;;;29.98;20.92;;;20.60;52.40;;;;;;5094293;28;20024;-72
2022/03/21 09:51:39;;;;;;;30.35;20.50;;;19.70;53.80;;;;;;5093864;28;20028;-72
2022/03/21 09:54:05;;;;;;;25.25;20.33;;;20.40;52.80;;;;;;5077175;28;20469;-72
2022/03/21 09:56:31;;;;;;;28.13;20.45;;;20.60;52.70;;;;;;5095274;28;20024;-73
2022/03/21 09:59:00;;;;;;;25.92;20.77;;;19.90;53.60;;;;;;5093766;28;20032;-72
2022/03/21 10:01:29;;;;;;;28.80;21.33;;;20.00;54.60;;;;;;5093211;28;20036;-72
2022/03/21 10:03:55;;;;;;;27.58;21.70;;;19.90;55.30;;;;;;5095146;28;20024;-72
2022/03/21 10:06:39;;;;;;;26.83;21.08;;;19.40;54.80;;;;;;5093655;28;20161;-73
2022/03/21 10:09:15;;;;;;;31.58;22.50;;;19.40;56.80;;;;;;5093961;28;20047;-73
2022/03/21 10:11:58;;;;;;;26.40;21.05;;;20.00;54.50;;;;;;5093714;28;20082;-73
2022/03/21 10:14:29;;;;;;;27.80;21.63;;;20.30;54.50;;;;;;5094709;28;20048;-72
2022/03/21 10:17:03;;;;;;;30.98;21.90;;;19.90;54.10;;;;;;5093490;28;20378;-66
2022/03/21 10:19:43;;;;;;;30.02;21.95;;;19.80;55.40;;;;;;5094844;28;20086;-66
2022/03/21 10:22:10;;;;;;;28.95;22.02;;;20.30;54.10;;;;;;5094800;28;20036;-66
2022/03/21 10:24:39;;;;;;;33.70;22.33;;;19.70;54.70;;;;;;5095044;28;20043;-73
2022/03/21 10:27:05;;;;;;;35.88;22.80;;;20.30;55.30;;;;;;5094442;28;20058;-73
2022/03/21 10:29:31;;;;;;;29.55;20.77;;;19.80;57.10;;;;;;5094342;28;20403;-73
2022/03/21 10:31:58;;;;;;;31.05;23.42;;;20.30;57.00;;;;;;5108740;28;20062;-73
2022/03/21 10:34:29;;;;;;;33.05;22.17;;;20.20;55.10;;;;;;5104328;28;20478;-73
2022/03/21 10:37:02;;;;;;;29.25;22.20;;;20.00;55.00;;;;;;5077125;28;20020;-73
2022/03/21 10:39:30;;;;;;;32.20;21.98;;;20.30;56.10;;;;;;5073169;28;20036;-73
2022/03/21 10:41:59;;;;;;;33.70;22.15;;;20.40;55.30;;;;;;5078604;28;20115;-73
2022/03/21 10:44:25;;;;;;;31.83;22.75;;;20.30;56.20;;;;;;5094385;28;20532;-73
2022/03/21 10:46:52;;;;;;;31.20;21.58;;;20.10;55.10;;;;;;5091929;28;20012;-73
2022/03/21 10:49:28;;;;;;;30.92;22.90;;;19.70;56.50;;;;;;5094359;28;20107;-73
2022/03/21 10:51:54;;;;;;;33.60;23.23;;;19.60;56.90;;;;;;5093976;28;20111;-73
2022/03/21 10:54:48;;;;;;;30.92;22.42;;;20.30;55.30;;;;;;5093532;28;20105;-73
2022/03/21 10:57:36;;;;;;;32.10;22.80;;;20.90;53.30;;;;;;5094169;28;20073;-73
2022/03/21 11:00:22;;;;;;;28.67;22.73;;;19.70;54.40;;;;;;5059844;28;20102;-73
2022/03/21 11:02:54;;;;;;;31.10;21.98;;;20.00;55.30;;;;;;5073376;28;20485;-73
2022/03/21 11:05:21;;;;;;;30.55;22.77;;;20.30;55.70;;;;;;5073721;28;20392;-73
2022/03/21 11:07:48;;;;;;;31.23;22.63;;;20.20;54.70;;;;;;5089287;28;20047;-73
2022/03/21 11:10:14;;;;;;;28.10;21.88;;;20.50;54.80;;;;;;5075604;28;20024;-73
2022/03/21 11:12:42;;;;;;;35.55;23.40;;;20.20;54.70;;;;;;5092453;28;20390;-73
2022/03/21 11:15:09;;;;;;;32.22;22.42;;;20.30;54.70;;;;;;5093675;28;20024;-73
2022/03/21 11:17:36;;;;;;;30.33;22.15;;;20.80;53.80;;;;;;5072134;28;20054;-73
2022/03/21 11:20:04;;;;;;;31.98;22.80;;;20.90;53.60;;;;;;5073436;28;20537;-74
2022/03/21 11:22:29;;;;;;;34.22;23.48;;;20.60;54.50;;;;;;5073456;28;20029;-73
2022/03/21 11:25:01;;;;;;;29.52;22.75;;;20.80;54.90;;;;;;5092465;28;20389;-73
2022/03/21 11:27:56;;;;;;;31.58;22.15;;;20.50;55.30;;;;;;5093506;28;20382;-74
2022/03/21 11:30:32;;;;;;;30.60;22.60;;;20.70;54.90;;;;;;5092196;28;20070;-73
2022/03/21 11:35:36;;;;;;;33.80;22.17;;;20.10;56.80;;;;;;5113119;27;20299;-73
2022/03/21 11:38:23;;;;;;;37.70;23.52;;;20.70;55.90;;;;;;5129960;28;20039;-73
2022/03/21 11:40:48;;;;;;;33.92;22.52;;;20.20;55.50;;;;;;5130421;28;20474;-73
2022/03/21 11:45:55;;;;;;;34.38;22.40;;;19.90;56.30;;;;;;5111285;27;20354;-73
2022/03/21 11:48:25;;;;;;;32.60;23.75;;;19.50;57.60;;;;;;5110110;28;20066;-72
2022/03/21 11:51:17;;;;;;;32.80;21.77;;;19.20;58.60;;;;;;5112211;28;20081;-73
2022/03/21 11:53:51;;;;;;;35.90;23.52;;;19.30;58.50;;;;;;5111996;28;20501;-72
2022/03/21 11:56:37;;;;;;;33.85;22.75;;;19.50;59.40;;;;;;5111704;28;20555;-73
2022/03/21 11:59:04;;;;;;;34.75;23.13;;;19.30;58.40;;;;;;5109386;28;20024;-72
2022/03/21 12:01:30;;;;;;;34.30;23.17;;;19.10;59.20;;;;;;5110273;28;20031;-72
2022/03/21 12:04:16;;;;;;;33.20;23.67;;;19.00;60.20;;;;;;5110576;28;20020;-72
2022/03/21 12:06:42;;;;;;;34.47;22.80;;;19.30;59.40;;;;;;5110103;28;20103;-72
2022/03/21 12:09:14;;;;;;;34.20;22.08;;;19.00;59.40;;;;;;5110538;28;20112;-73
2022/03/21 12:22:33;;;;;;;35.20;23.40;;;19.10;60.50;;;;;;5111660;27;20321;-73
2022/03/21 12:25:20;;;;;;;32.60;22.58;;;19.60;59.10;;;;;;5116195;28;20031;-73
2022/03/21 12:27:53;;;;;;;30.20;22.23;;;19.60;59.00;;;;;;5126954;27;20482;-73
2022/03/21 12:33:05;;;;;;;31.08;22.60;;;19.30;59.50;;;;;;5111511;27;20367;-75
2022/03/21 12:38:12;;;;;;;36.30;22.33;;;19.40;61.30;;;;;;5110985;27;20864;-73
2022/03/21 12:40:53;;;;;;;27.70;21.58;;;19.80;60.30;;;;;;5093003;28;20031;-73
2022/03/21 12:46:18;;;;;;;30.40;19.35;;;19.60;59.80;;;;;;5090122;28;20368;-73
2022/03/21 12:48:47;;;;;;;29.70;20.58;;;20.00;59.40;;;;;;5072646;28;20048;-73
2022/03/21 12:51:15;;;;;;;27.75;19.25;;;19.80;59.20;;;;;;5072339;28;20089;-72
2022/03/21 12:53:48;;;;;;;32.90;19.20;;;19.50;59.60;;;;;;5087096;28;20024;-74
2022/03/21 12:56:17;;;;;;;29.13;20.10;;;19.40;61.40;;;;;;5073546;28;20036;-73
2022/03/21 12:58:46;;;;;;;30.70;20.10;;;19.60;60.10;;;;;;5087502;28;20584;-72
2022/03/21 13:01:14;;;;;;;31.45;20.58;;;19.50;59.10;;;;;;5090201;28;20500;-73
2022/03/21 13:03:40;;;;;;;33.20;21.95;;;19.50;59.50;;;;;;5071406;28;20033;-72
2022/03/21 13:11:44;;;;;;;32.17;21.83;;;19.70;61.30;;;;;;5069508;28;20511;-73
2022/03/21 13:14:15;;;;;;;33.08;21.40;;;19.60;59.30;;;;;;5068723;28;20028;-73
2022/03/21 13:16:58;;;;;;;35.08;21.17;;;19.40;60.70;;;;;;5069708;28;20028;-73
2022/03/21 13:19:27;;;;;;;30.17;19.83;;;19.40;60.40;;;;;;5069731;28;20024;-72
2022/03/21 13:21:56;;;;;;;32.90;21.38;;;19.60;60.50;;;;;;5074449;28;20024;-73
2022/03/21 13:27:17;;;;;;;30.63;21.00;;;19.60;61.60;;;;;;5090582;28;20409;-73
2022/03/21 13:29:52;;;;;;;34.83;21.48;;;19.60;62.10;;;;;;5089869;28;20486;-72